Time;durP1;ratioP1;P1;durP2;ratioP2;P2;SDS_P1;SDS_P2;PMS_P1;PMS_P2;Temp;Humidity;BMP_temperature;BMP_pressure;BME280_temperature;BME280_humidity;BME280_pressure;Samples;Min_cycle;Max_cycle;Signal;HPM_P1;HPM_P2
2022/02/09 00:00:56;;;;;;;1.60;1.17;;;9.60;98.20;;;;;;5028791;28;20479;-74
2022/02/09 00:03:26;;;;;;;1.63;1.30;;;9.60;98.20;;;;;;5017576;28;20979;-76
2022/02/09 00:05:59;;;;;;;1.60;1.20;;;9.60;98.20;;;;;;5019184;28;20463;-74
2022/02/09 00:08:26;;;;;;;1.60;1.20;;;9.60;98.20;;;;;;5041244;28;20463;-75
2022/02/09 00:10:58;;;;;;;1.60;1.20;;;9.60;98.20;;;;;;5018937;28;20494;-74
2022/02/09 00:16:17;;;;;;;1.60;1.20;;;9.60;98.20;;;;;;5020340;28;20485;-74
2022/02/09 00:18:51;;;;;;;1.60;1.10;;;9.60;98.20;;;;;;5038630;28;20494;-74
2022/02/09 00:21:57;;;;;;;1.60;1.20;;;9.60;98.20;;;;;;5021076;28;20478;-74
2022/02/09 00:25:03;;;;;;;1.60;1.30;;;9.60;98.20;;;;;;5033826;28;20950;-74
2022/02/09 00:33:38;;;;;;;1.60;1.20;;;9.60;98.20;;;;;;5033950;28;20493;-74
2022/02/09 00:36:31;;;;;;;1.60;1.40;;;9.60;98.20;;;;;;5020306;28;20455;-75
2022/02/09 00:39:29;;;;;;;1.60;1.20;;;9.60;98.20;;;;;;5037280;28;20487;-75
2022/02/09 00:42:10;;;;;;;1.60;1.17;;;9.60;98.20;;;;;;5028654;28;20486;-74
2022/02/09 00:44:50;;;;;;;1.60;1.20;;;9.60;98.20;;;;;;5032972;28;20558;-74
2022/02/09 01:39:41;;;;;;;1.60;1.20;;;9.50;98.20;;;;;;5037767;28;20489;-74
2022/02/09 01:55:51;;;;;;;2.90;1.87;;;9.50;98.20;;;;;;5017617;28;20454;-75
2022/02/09 01:58:19;;;;;;;1.60;1.27;;;9.50;98.20;;;;;;5046636;28;20455;-74
2022/02/09 02:00:47;;;;;;;1.60;1.20;;;9.50;98.20;;;;;;5030957;28;20495;-75
2022/02/09 02:03:14;;;;;;;1.60;1.20;;;9.50;98.20;;;;;;5022877;28;20843;-75
2022/02/09 02:05:41;;;;;;;1.60;1.20;;;9.50;98.20;;;;;;5030217;28;20459;-74
2022/02/09 02:08:11;;;;;;;1.60;1.20;;;9.50;98.20;;;;;;5030530;28;20478;-76
2022/02/09 02:10:48;;;;;;;1.60;1.10;;;9.50;98.20;;;;;;5019661;28;20475;-74
2022/02/09 02:13:36;;;;;;;1.60;1.10;;;9.50;98.20;;;;;;5019579;28;20479;-75
2022/02/09 02:18:54;;;;;;;1.60;1.10;;;9.50;98.20;;;;;;5032958;28;20556;-76
2022/02/09 02:21:37;;;;;;;1.60;1.10;;;9.50;98.20;;;;;;5023432;28;20498;-75
2022/02/09 02:24:43;;;;;;;1.60;1.20;;;9.50;98.20;;;;;;5038561;28;20518;-74
2022/02/09 02:27:36;;;;;;;1.60;1.10;;;9.50;98.20;;;;;;5034857;28;20866;-75
2022/02/09 02:30:20;;;;;;;1.60;1.10;;;9.50;98.20;;;;;;5030991;28;20471;-75
2022/02/09 02:33:08;;;;;;;1.60;1.27;;;9.50;98.20;;;;;;5035511;28;20482;-75
2022/02/09 02:35:58;;;;;;;1.60;1.10;;;9.50;98.20;;;;;;5030623;28;20471;-75
2022/02/09 02:42:18;;;;;;;1.60;1.17;;;9.50;98.20;;;;;;4974811;28;20500;-74
2022/02/09 02:45:27;;;;;;;1.60;1.20;;;9.50;98.20;;;;;;4986804;28;20460;-74
2022/02/09 02:47:53;;;;;;;1.60;1.30;;;9.50;98.20;;;;;;5032381;28;20935;-76
2022/02/09 03:10:13;;;;;;;1.60;1.10;;;9.50;98.20;;;;;;5033026;28;20496;-74
2022/02/09 03:12:44;;;;;;;1.60;1.10;;;9.50;98.20;;;;;;5033775;28;20507;-75
2022/02/09 03:15:31;;;;;;;1.60;1.20;;;9.50;98.20;;;;;;5030916;28;20506;-75
2022/02/09 03:18:15;;;;;;;1.60;1.20;;;9.50;98.20;;;;;;5036907;28;20485;-75
2022/02/09 03:20:47;;;;;;;1.60;1.13;;;9.40;98.20;;;;;;5027971;28;20544;-77
2022/02/09 03:23:38;;;;;;;1.60;1.20;;;9.50;98.20;;;;;;5017538;28;21022;-74
2022/02/09 03:26:25;;;;;;;1.60;1.13;;;9.50;98.20;;;;;;5020534;28;20526;-75
2022/02/09 03:42:56;;;;;;;1.60;1.20;;;9.50;98.20;;;;;;5057292;28;20524;-73
2022/02/09 03:45:55;;;;;;;1.60;1.10;;;9.50;98.20;;;;;;5048832;28;20470;-73
2022/02/09 03:54:04;;;;;;;1.60;1.10;;;9.40;98.20;;;;;;5063004;28;20532;-73
2022/02/09 03:56:43;;;;;;;1.60;1.27;;;9.40;98.20;;;;;;5051788;28;20538;-73
2022/02/09 03:59:13;;;;;;;1.60;1.10;;;9.40;98.20;;;;;;5075913;28;20938;-73
2022/02/09 04:01:43;;;;;;;1.60;1.20;;;9.40;98.20;;;;;;5059880;28;20485;-73
2022/02/09 04:04:10;;;;;;;1.60;1.20;;;9.40;98.20;;;;;;5060487;28;20606;-73
2022/02/09 04:06:38;;;;;;;1.60;1.10;;;9.40;98.20;;;;;;5047677;28;20485;-73
2022/02/09 04:09:10;;;;;;;1.60;1.10;;;9.40;98.20;;;;;;5058043;28;20458;-72
2022/02/09 04:11:42;;;;;;;1.60;1.10;;;9.40;98.20;;;;;;5058570;28;20572;-74
2022/02/09 04:14:16;;;;;;;1.60;1.13;;;9.40;98.20;;;;;;5058310;28;20470;-74
2022/02/09 04:16:57;;;;;;;1.60;1.20;;;9.40;98.20;;;;;;5058719;28;20479;-74
2022/02/09 04:19:33;;;;;;;1.60;1.20;;;9.40;98.20;;;;;;5055479;28;20501;-74
2022/02/09 04:38:41;;;;;;;1.60;1.20;;;9.40;98.20;;;;;;5049617;28;20551;-75
2022/02/09 04:44:04;;;;;;;1.60;1.20;;;9.40;98.20;;;;;;5068292;28;20457;-74
2022/02/09 04:52:17;;;;;;;1.60;1.10;;;9.40;98.20;;;;;;5052283;28;20470;-74
2022/02/09 04:54:48;;;;;;;1.60;1.17;;;9.40;98.20;;;;;;5051485;28;20454;-74
2022/02/09 04:57:27;;;;;;;1.60;1.20;;;9.30;98.20;;;;;;5052155;28;20485;-74
2022/02/09 05:00:08;;;;;;;1.60;1.10;;;9.30;98.20;;;;;;5068533;28;20493;-74
2022/02/09 05:03:04;;;;;;;1.60;1.30;;;9.30;98.20;;;;;;5058695;28;20485;-74
2022/02/09 05:28:02;;;;;;;1.60;1.20;;;9.40;98.20;;;;;;4992981;28;20495;-74
2022/02/09 05:30:29;;;;;;;1.60;1.20;;;9.40;98.20;;;;;;5037718;28;20501;-75
2022/02/09 05:32:56;;;;;;;1.60;1.20;;;9.40;98.20;;;;;;5063492;28;20492;-74
2022/02/09 05:35:23;;;;;;;1.60;1.10;;;9.40;98.20;;;;;;5066180;28;20471;-74
2022/02/09 05:37:52;;;;;;;1.60;1.20;;;9.30;98.20;;;;;;5064712;28;20546;-72
2022/02/09 05:40:19;;;;;;;1.60;1.17;;;9.40;98.20;;;;;;5066007;28;20489;-74
2022/02/09 05:42:47;;;;;;;1.60;1.20;;;9.40;98.20;;;;;;5060212;28;20481;-74
2022/02/09 05:45:15;;;;;;;1.60;1.20;;;9.40;98.20;;;;;;5050880;28;20957;-73
2022/02/09 05:50:31;;;;;;;1.60;1.20;;;9.30;98.20;;;;;;5069451;28;20456;-74
2022/02/09 05:53:09;;;;;;;1.60;1.20;;;9.30;98.20;;;;;;5053656;28;20487;-74
2022/02/09 05:55:45;;;;;;;1.60;1.40;;;9.40;98.20;;;;;;5046918;28;20493;-74
2022/02/09 05:58:21;;;;;;;1.60;1.10;;;9.30;98.20;;;;;;5039539;28;20991;-74
2022/02/09 06:00:48;;;;;;;1.60;1.10;;;9.30;98.20;;;;;;5053714;28;21129;-74
2022/02/09 06:03:15;;;;;;;1.60;1.20;;;9.30;98.20;;;;;;5066714;28;20478;-74
2022/02/09 06:05:42;;;;;;;1.60;1.20;;;9.30;98.20;;;;;;5053995;28;21004;-75
2022/02/09 06:08:11;;;;;;;1.60;1.10;;;9.30;98.20;;;;;;5072213;28;20496;-74
2022/02/09 06:10:39;;;;;;;1.60;1.20;;;9.30;98.20;;;;;;5068537;28;20598;-74
2022/02/09 06:13:20;;;;;;;2.57;1.40;;;9.30;98.20;;;;;;5069705;28;20476;-75
2022/02/09 06:21:18;;;;;;;1.60;1.20;;;9.30;98.20;;;;;;5042241;28;20503;-75
2022/02/09 06:23:47;;;;;;;1.60;1.20;;;9.30;98.20;;;;;;5061054;28;20496;-74
2022/02/09 06:26:13;;;;;;;1.60;1.40;;;9.40;98.20;;;;;;5043318;28;20476;-74
2022/02/09 06:28:40;;;;;;;1.60;1.17;;;9.40;98.20;;;;;;5063765;28;20502;-74
2022/02/09 06:31:07;;;;;;;1.60;1.27;;;9.40;98.20;;;;;;5044031;28;20482;-74
2022/02/09 06:33:34;;;;;;;1.60;1.20;;;9.40;98.20;;;;;;5064968;28;20496;-74
2022/02/09 06:36:04;;;;;;;1.60;1.20;;;9.40;98.20;;;;;;5042766;28;21132;-74
2022/02/09 06:38:38;;;;;;;1.60;1.10;;;9.40;98.20;;;;;;5075317;28;20481;-73
2022/02/09 06:41:06;;;;;;;1.60;1.20;;;9.40;98.20;;;;;;5060088;28;20932;-74
2022/02/09 06:43:33;;;;;;;1.60;1.20;;;9.40;98.20;;;;;;5064258;28;20466;-74
2022/02/09 06:46:01;;;;;;;1.60;1.20;;;9.40;98.20;;;;;;5041885;28;20988;-74
2022/02/09 06:48:29;;;;;;;1.60;1.10;;;9.40;98.20;;;;;;5064396;28;20489;-74
2022/02/09 06:51:02;;;;;;;1.60;1.30;;;9.40;98.20;;;;;;5036288;28;20463;-74
2022/02/09 06:53:33;;;;;;;1.70;1.33;;;9.40;98.20;;;;;;5060779;28;20455;-74
2022/02/09 06:56:02;;;;;;;1.60;1.20;;;9.40;98.20;;;;;;5038475;28;20470;-77
2022/02/09 07:01:13;;;;;;;1.60;1.20;;;9.40;98.20;;;;;;5037077;28;21067;-73
2022/02/09 07:03:48;;;;;;;1.60;1.20;;;9.40;98.20;;;;;;5067097;28;20481;-72
2022/02/09 07:06:15;;;;;;;1.60;1.20;;;9.40;98.20;;;;;;5053802;28;20468;-73
2022/02/09 07:08:42;;;;;;;1.60;1.20;;;9.40;98.20;;;;;;5066680;28;20725;-73
2022/02/09 07:11:11;;;;;;;1.60;1.10;;;9.40;98.20;;;;;;5047920;28;20584;-76
2022/02/09 07:13:40;;;;;;;1.60;1.13;;;9.40;98.20;;;;;;5065595;28;20545;-73
2022/02/09 07:16:11;;;;;;;1.60;1.20;;;9.50;98.20;;;;;;5046440;28;20465;-72
2022/02/09 07:18:41;;;;;;;1.70;1.40;;;9.40;98.20;;;;;;5063513;28;20565;-73
2022/02/09 07:21:14;;;;;;;1.60;1.10;;;9.40;98.20;;;;;;5046859;28;20536;-73
2022/02/09 07:23:45;;;;;;;1.60;1.20;;;9.50;98.20;;;;;;5069478;28;20544;-73
2022/02/09 07:26:17;;;;;;;1.60;1.10;;;9.50;98.20;;;;;;5051843;28;21026;-72
2022/02/09 07:28:46;;;;;;;1.60;1.30;;;9.50;98.20;;;;;;5065996;22;20554;-73
2022/02/09 07:31:16;;;;;;;1.60;1.20;;;9.50;98.20;;;;;;5042880;28;20500;-73
2022/02/09 07:33:48;;;;;;;1.60;1.20;;;9.50;98.20;;;;;;5064000;28;20565;-73
2022/02/09 07:36:20;;;;;;;1.60;1.10;;;9.50;98.20;;;;;;5050414;28;20487;-73
2022/02/09 07:38:48;;;;;;;1.60;1.20;;;9.50;98.20;;;;;;5052936;28;20487;-72
2022/02/09 07:41:18;;;;;;;1.60;1.30;;;9.60;98.20;;;;;;5033171;28;20477;-72
2022/02/09 07:44:01;;;;;;;1.60;1.20;;;9.60;98.20;;;;;;5061634;28;20466;-72
2022/02/09 07:46:40;;;;;;;1.60;1.20;;;9.60;98.20;;;;;;5046777;28;20498;-72
2022/02/09 07:49:11;;;;;;;1.60;1.20;;;9.60;98.20;;;;;;5041277;28;20462;-74
2022/02/09 07:51:54;;;;;;;1.60;1.10;;;9.70;98.20;;;;;;5038367;28;20536;-72
2022/02/09 07:54:24;;;;;;;1.60;1.20;;;9.70;98.20;;;;;;5051001;28;20609;-72
2022/02/09 07:56:52;;;;;;;1.60;1.10;;;9.70;98.20;;;;;;5043155;28;20485;-72
2022/02/09 07:59:20;;;;;;;1.60;1.20;;;9.70;98.20;;;;;;5043971;28;20455;-74
2022/02/09 08:01:47;;;;;;;1.60;1.10;;;9.70;98.20;;;;;;5035609;28;20482;-74
2022/02/09 08:04:14;;;;;;;1.60;1.10;;;9.70;98.20;;;;;;5049394;28;20459;-73
2022/02/09 08:06:42;;;;;;;1.60;1.20;;;9.70;98.20;;;;;;5036599;28;20471;-73
2022/02/09 08:09:15;;;;;;;1.60;1.20;;;9.70;98.20;;;;;;5049019;28;20464;-73
2022/02/09 08:11:49;;;;;;;1.60;1.10;;;9.70;98.20;;;;;;5031879;28;20568;-73
2022/02/09 08:28:21;;;;;;;1.57;1.10;;;9.80;98.20;;;;;;5045240;28;20573;-73
2022/02/09 08:31:01;;;;;;;1.70;1.37;;;9.80;98.20;;;;;;5040945;28;20569;-75
2022/02/09 08:33:29;;;;;;;1.60;1.30;;;9.80;98.20;;;;;;5027966;28;20479;-76
2022/02/09 08:35:57;;;;;;;1.60;1.30;;;9.80;98.20;;;;;;5029751;28;20459;-72
2022/02/09 08:38:28;;;;;;;1.60;1.07;;;9.80;98.20;;;;;;5054810;28;20491;-71
2022/02/09 08:40:55;;;;;;;1.60;1.10;;;9.90;98.20;;;;;;5032128;28;20553;-75
2022/02/09 08:43:22;;;;;;;1.60;1.20;;;9.90;98.20;;;;;;5057722;28;20467;-72
2022/02/09 08:45:50;;;;;;;1.60;1.20;;;10.00;98.20;;;;;;5033877;28;20459;-75
2022/02/09 08:48:20;;;;;;;1.90;1.70;;;10.00;98.20;;;;;;5058644;28;20487;-72
2022/02/09 08:50:49;;;;;;;1.60;1.10;;;10.00;98.20;;;;;;5041777;28;20816;-75
2022/02/09 08:53:17;;;;;;;1.60;1.20;;;10.00;98.20;;;;;;5031223;28;20470;-72
2022/02/09 08:55:44;;;;;;;1.60;1.30;;;10.00;98.20;;;;;;5039733;28;20462;-75
2022/02/09 08:58:12;;;;;;;1.60;1.10;;;10.00;98.20;;;;;;5046502;28;20481;-75
2022/02/09 09:00:40;;;;;;;1.60;1.20;;;10.00;98.20;;;;;;5040379;28;20864;-75
2022/02/09 09:03:16;;;;;;;1.60;1.20;;;10.00;98.20;;;;;;5048994;28;20569;-75
2022/02/09 09:05:47;;;;;;;1.60;1.20;;;10.00;98.20;;;;;;5040508;28;20905;-74
2022/02/09 09:08:34;;;;;;;1.60;1.10;;;10.00;98.20;;;;;;5030205;28;20477;-73
2022/02/09 09:11:19;;;;;;;1.60;1.10;;;10.00;98.20;;;;;;5034678;28;20461;-73
2022/02/09 09:58:24;;;;;;;1.60;1.20;;;10.10;98.20;;;;;;5016209;28;20510;-76
2022/02/09 10:03:55;;;;;;;1.70;1.20;;;10.20;98.20;;;;;;5016850;28;20490;-77
2022/02/09 10:31:54;;;;;;;1.60;1.10;;;10.20;98.20;;;;;;4995214;28;20482;-75
2022/02/09 10:34:25;;;;;;;1.60;1.00;;;10.20;98.20;;;;;;5008806;28;20551;-75
2022/02/09 10:36:56;;;;;;;1.60;1.23;;;10.20;98.20;;;;;;5003732;28;21080;-75
2022/02/09 10:39:31;;;;;;;1.60;1.10;;;10.10;98.20;;;;;;5011641;28;20468;-75
2022/02/09 10:42:09;;;;;;;1.60;1.10;;;10.10;98.20;;;;;;5003285;28;20493;-75
2022/02/09 10:44:46;;;;;;;1.60;1.10;;;10.00;98.20;;;;;;5009993;28;20547;-75
2022/02/09 10:47:25;;;;;;;1.60;1.17;;;10.00;98.20;;;;;;5005139;28;20479;-75
2022/02/09 10:50:12;;;;;;;1.60;1.10;;;10.00;98.20;;;;;;5007830;28;20455;-75
2022/02/09 10:52:41;;;;;;;1.60;1.10;;;10.00;98.20;;;;;;5008108;28;20517;-75
2022/02/09 10:55:26;;;;;;;1.60;1.10;;;10.00;98.20;;;;;;5003372;28;20456;-75
2022/02/09 10:57:54;;;;;;;1.60;1.10;;;10.00;98.20;;;;;;5006535;28;21030;-76
2022/02/09 11:00:21;;;;;;;1.60;1.20;;;10.00;98.20;;;;;;5003178;28;20465;-77
2022/02/09 11:02:50;;;;;;;1.60;1.20;;;10.00;98.20;;;;;;5007819;28;20497;-76
2022/02/09 11:05:19;;;;;;;1.60;1.10;;;10.00;98.20;;;;;;4999252;28;20476;-76
2022/02/09 11:07:46;;;;;;;1.60;1.10;;;10.00;98.20;;;;;;5006500;28;21002;-75
2022/02/09 11:10:13;;;;;;;1.60;1.10;;;9.90;98.20;;;;;;5004484;28;20463;-76
2022/02/09 11:12:41;;;;;;;1.60;1.20;;;9.90;98.20;;;;;;5007030;28;20495;-76
2022/02/09 11:15:10;;;;;;;1.60;1.10;;;10.00;98.20;;;;;;5005134;28;20468;-76
2022/02/09 11:17:38;;;;;;;1.60;1.10;;;10.00;98.20;;;;;;5006344;28;20587;-75
2022/02/09 11:20:09;;;;;;;1.60;1.10;;;10.00;98.20;;;;;;5004613;28;20482;-76
2022/02/09 11:22:43;;;;;;;1.60;1.10;;;10.00;98.20;;;;;;5006706;28;20822;-77
2022/02/09 11:25:16;;;;;;;1.60;1.20;;;10.10;98.20;;;;;;4995528;28;20963;-77
2022/02/09 11:27:51;;;;;;;1.60;1.27;;;10.10;98.20;;;;;;5004719;28;20479;-76
2022/02/09 11:30:27;;;;;;;1.60;1.10;;;10.20;98.20;;;;;;5001152;28;20558;-77
2022/02/09 11:33:17;;;;;;;1.60;1.10;;;10.30;98.20;;;;;;5007934;28;20494;-79
2022/02/09 11:36:19;;;;;;;1.60;1.20;;;10.50;98.20;;;;;;5002814;28;20836;-77
2022/02/09 11:38:51;;;;;;;1.60;1.10;;;10.60;98.20;;;;;;4990300;28;20570;-78
2022/02/09 11:41:23;;;;;;;1.60;1.30;;;10.60;98.20;;;;;;4994995;28;21025;-79
2022/02/09 11:47:01;;;;;;;1.60;1.10;;;10.80;98.20;;;;;;4992478;28;20514;-77
2022/02/09 12:01:36;;;;;;;1.60;1.10;;;11.10;98.20;;;;;;4992816;28;20452;-78
2022/02/09 12:10:20;;;;;;;1.60;1.10;;;11.40;98.20;;;;;;4995878;28;20455;-77
2022/02/09 12:12:58;;;;;;;1.60;1.10;;;11.50;98.20;;;;;;5003820;28;20486;-78
2022/02/09 12:19:04;;;;;;;1.60;1.10;;;11.50;98.20;;;;;;4983090;28;20992;-77
2022/02/09 12:21:41;;;;;;;1.60;1.10;;;11.60;98.20;;;;;;4993910;28;20951;-78
2022/02/09 12:24:21;;;;;;;1.60;1.20;;;11.60;98.20;;;;;;5006228;28;20840;-77
2022/02/09 12:26:59;;;;;;;1.60;1.10;;;11.60;98.20;;;;;;4995738;28;20849;-80
2022/02/09 12:29:32;;;;;;;1.60;1.20;;;11.60;98.20;;;;;;5004189;28;20487;-79
2022/02/09 12:31:59;;;;;;;1.60;1.10;;;11.60;98.20;;;;;;4994389;28;20985;-76
2022/02/09 12:34:29;;;;;;;1.70;1.20;;;11.60;98.20;;;;;;5004215;28;20483;-77
2022/02/09 12:36:56;;;;;;;1.67;1.20;;;11.60;98.20;;;;;;4996242;28;20507;-78
2022/02/09 12:39:25;;;;;;;1.60;1.10;;;11.60;98.20;;;;;;5005501;28;20974;-78
2022/02/09 12:41:59;;;;;;;1.60;1.10;;;11.60;98.20;;;;;;4997925;28;20681;-78
2022/02/09 12:44:27;;;;;;;1.60;1.20;;;11.60;98.20;;;;;;5002984;28;20480;-77
2022/02/09 12:46:55;;;;;;;1.83;1.47;;;11.50;98.20;;;;;;4995181;28;20755;-76
2022/02/09 12:49:23;;;;;;;1.60;1.20;;;11.50;98.20;;;;;;5008030;28;20964;-73
2022/02/09 12:51:51;;;;;;;1.60;1.10;;;11.70;98.20;;;;;;4999793;28;20596;-75
2022/02/09 12:54:20;;;;;;;1.60;1.00;;;12.00;98.20;;;;;;5006708;28;20468;-75
2022/02/09 12:56:50;;;;;;;1.60;1.00;;;12.30;98.20;;;;;;4997816;28;21112;-74
2022/02/09 12:59:19;;;;;;;1.60;1.00;;;12.50;98.20;;;;;;5010063;28;20772;-75
2022/02/09 13:01:50;;;;;;;1.60;1.10;;;12.50;98.20;;;;;;4994826;28;20487;-76
2022/02/09 13:04:29;;;;;;;1.60;1.10;;;12.50;98.20;;;;;;5008861;28;20468;-74
2022/02/09 13:06:58;;;;;;;1.60;1.00;;;12.40;98.20;;;;;;4995174;28;21275;-74
2022/02/09 13:09:25;;;;;;;1.60;1.00;;;12.40;98.20;;;;;;5002873;28;21127;-75
2022/02/09 13:11:53;;;;;;;1.60;1.03;;;12.50;98.20;;;;;;4998338;28;21366;-76
2022/02/09 13:14:29;;;;;;;1.60;1.07;;;12.40;98.20;;;;;;5008118;28;20479;-77
2022/02/09 13:17:22;;;;;;;1.60;1.10;;;12.40;98.20;;;;;;5000602;28;20482;-75
2022/02/09 13:25:59;;;;;;;2.63;1.93;;;12.80;98.20;;;;;;4987920;28;20461;-75
2022/02/09 13:53:00;;;;;;;1.60;1.03;;;12.50;98.20;;;;;;4964050;28;20489;-75
2022/02/09 14:15:14;;;;;;;1.60;1.10;;;11.90;98.20;;;;;;5011005;28;20456;-75
2022/02/09 14:51:46;;;;;;;1.60;1.10;;;11.90;98.20;;;;;;5080036;27;20555;-73
2022/02/09 14:54:27;;;;;;;1.60;1.10;;;11.90;98.20;;;;;;5024983;28;20499;-78
2022/02/09 14:56:59;;;;;;;1.60;1.10;;;11.90;98.20;;;;;;5004439;28;20720;-73
2022/02/09 14:59:44;;;;;;;1.60;1.07;;;11.80;98.20;;;;;;5018353;28;20688;-78
2022/02/09 15:02:17;;;;;;;1.60;1.10;;;11.80;98.20;;;;;;5002124;28;20479;-79
2022/02/09 15:05:10;;;;;;;1.60;1.10;;;11.70;98.20;;;;;;5013095;28;20570;-77
2022/02/09 15:07:45;;;;;;;1.60;1.10;;;11.60;98.20;;;;;;5032054;28;20485;-79
2022/02/09 15:10:18;;;;;;;1.60;1.03;;;11.50;98.20;;;;;;5012438;28;20868;-77
2022/02/09 15:12:56;;;;;;;1.60;1.27;;;11.50;98.20;;;;;;5035196;28;20588;-80
2022/02/09 15:15:35;;;;;;;1.60;1.10;;;11.40;98.20;;;;;;5013107;28;20463;-75
2022/02/09 15:18:32;;;;;;;1.60;1.13;;;11.40;98.20;;;;;;5008928;28;20487;-77
2022/02/09 15:21:18;;;;;;;1.60;1.10;;;11.20;98.20;;;;;;5002922;28;20966;-78
2022/02/09 15:27:05;;;;;;;1.60;1.10;;;11.10;98.20;;;;;;4961459;28;20531;-80
2022/02/09 15:29:36;;;;;;;1.60;1.10;;;11.10;98.20;;;;;;5016456;28;21093;-77
2022/02/09 15:32:07;;;;;;;1.60;1.10;;;11.00;98.20;;;;;;5020002;28;20538;-79
2022/02/09 15:34:40;;;;;;;1.60;1.20;;;11.00;98.20;;;;;;5017246;28;20491;-77
2022/02/09 15:37:14;;;;;;;1.60;1.20;;;11.00;98.20;;;;;;5004326;28;20545;-75
2022/02/09 15:39:45;;;;;;;1.60;1.10;;;10.90;98.20;;;;;;5011257;28;20483;-76
2022/02/09 15:42:47;;;;;;;1.60;1.10;;;10.90;98.20;;;;;;5008452;28;20487;-78
2022/02/09 15:56:30;;;;;;;1.60;1.20;;;10.60;98.20;;;;;;5020917;28;20520;-80
2022/02/09 16:23:47;;;;;;;1.60;1.30;;;9.90;98.20;;;;;;5010196;28;20472;-76
2022/02/09 16:37:44;;;;;;;1.60;1.20;;;9.50;98.20;;;;;;4941857;28;20511;-77
2022/02/09 16:46:15;;;;;;;1.60;1.20;;;9.30;98.20;;;;;;5007651;28;20475;-77
2022/02/09 16:48:53;;;;;;;1.60;1.20;;;9.20;98.20;;;;;;5010028;28;20479;-78
2022/02/09 16:51:22;;;;;;;1.60;1.20;;;9.10;98.20;;;;;;5007181;28;20486;-77
2022/02/09 16:54:03;;;;;;;1.60;1.20;;;9.00;98.20;;;;;;5040888;28;20560;-76
2022/02/09 16:56:58;;;;;;;1.60;1.13;;;8.90;98.20;;;;;;5006566;28;20484;-76
2022/02/09 17:18:50;;;;;;;1.63;1.30;;;8.20;98.20;;;;;;5043764;28;20548;-77
2022/02/09 17:21:20;;;;;;;1.60;1.20;;;8.10;98.20;;;;;;5012338;28;20489;-74
2022/02/09 17:23:50;;;;;;;1.60;1.20;;;8.00;98.20;;;;;;5027759;28;20654;-77
2022/02/09 17:26:17;;;;;;;1.60;1.30;;;8.00;98.20;;;;;;5007014;28;21103;-80
2022/02/09 17:28:45;;;;;;;1.60;1.30;;;7.90;98.20;;;;;;5039734;28;20467;-77
2022/02/09 17:31:25;;;;;;;1.67;1.40;;;7.80;98.20;;;;;;5000299;28;20473;-78
2022/02/09 17:34:16;;;;;;;1.60;1.30;;;7.70;98.20;;;;;;5031524;28;20513;-78
2022/02/09 17:37:00;;;;;;;2.70;2.50;;;7.60;98.20;;;;;;5009978;28;20885;-78
2022/02/09 17:53:25;;;;;;;1.60;1.20;;;7.50;98.20;;;;;;5034074;28;21269;-80
2022/02/09 17:55:57;;;;;;;1.60;1.20;;;7.40;98.20;;;;;;5001360;28;20478;-80
2022/02/09 17:58:30;;;;;;;1.70;1.40;;;7.40;98.20;;;;;;5041545;28;20469;-81
2022/02/09 18:00:58;;;;;;;1.60;1.20;;;7.40;98.20;;;;;;5005347;28;20467;-79
2022/02/09 18:03:26;;;;;;;1.67;1.40;;;7.30;98.20;;;;;;5043947;28;20483;-78
2022/02/09 18:05:57;;;;;;;1.60;1.30;;;7.30;98.20;;;;;;5003259;28;20582;-75
2022/02/09 18:08:29;;;;;;;1.70;1.30;;;7.30;98.20;;;;;;5041050;28;20471;-75
2022/02/09 18:11:16;;;;;;;1.70;1.43;;;7.30;98.20;;;;;;4999478;28;20499;-76
2022/02/09 18:28:11;;;;;;;1.70;1.53;;;7.00;98.20;;;;;;5033345;28;20493;-79
2022/02/09 18:30:43;;;;;;;1.60;1.20;;;6.90;98.20;;;;;;5005390;28;20484;-85
2022/02/09 18:44:08;;;;;;;1.60;1.30;;;7.00;98.20;;;;;;5028290;28;20463;-86
2022/02/09 18:46:51;;;;;;;1.70;1.40;;;7.00;98.20;;;;;;5022535;28;21048;-80
2022/02/09 19:03:30;;;;;;;1.70;1.40;;;7.20;98.20;;;;;;4950496;28;20532;-80
2022/02/09 19:06:01;;;;;;;1.70;1.40;;;7.30;98.20;;;;;;5006642;28;20474;-80
2022/02/09 19:14:15;;;;;;;1.60;1.30;;;7.40;98.20;;;;;;4994404;28;20483;-77
2022/02/09 19:16:57;;;;;;;1.60;1.20;;;7.40;98.20;;;;;;5016727;28;20508;-78
2022/02/09 19:19:36;;;;;;;1.60;1.30;;;7.50;98.20;;;;;;5018555;28;20468;-80
2022/02/09 19:33:33;;;;;;;1.60;1.20;;;7.70;98.20;;;;;;5028640;28;20936;-74
2022/02/09 19:47:22;;;;;;;1.60;1.30;;;7.80;98.20;;;;;;5033242;28;20473;-76
2022/02/09 19:50:07;;;;;;;1.60;1.20;;;7.80;98.20;;;;;;5015148;28;20892;-74
2022/02/09 19:52:48;;;;;;;1.60;1.30;;;7.80;98.20;;;;;;5029432;28;20561;-74
2022/02/09 19:55:32;;;;;;;1.60;1.30;;;7.80;98.20;;;;;;5014339;28;20503;-76
2022/02/09 19:58:00;;;;;;;1.60;1.27;;;7.80;98.20;;;;;;5034717;28;20584;-74
2022/02/09 20:00:32;;;;;;;1.63;1.37;;;7.80;98.20;;;;;;5011453;28;20985;-75
2022/02/09 20:02:58;;;;;;;1.60;1.30;;;7.90;98.20;;;;;;5032553;28;20996;-77
2022/02/09 20:05:26;;;;;;;1.60;1.30;;;7.90;98.20;;;;;;5011993;28;20474;-75
2022/02/09 20:07:55;;;;;;;1.60;1.40;;;7.90;98.20;;;;;;5035336;28;20489;-74
2022/02/09 20:10:23;;;;;;;1.63;1.40;;;7.90;98.20;;;;;;5022156;28;21070;-75
2022/02/09 20:12:50;;;;;;;1.93;1.73;;;7.90;98.20;;;;;;5035579;28;20512;-74
2022/02/09 20:15:18;;;;;;;1.60;1.30;;;7.90;98.20;;;;;;5022553;28;20489;-75
2022/02/09 20:17:46;;;;;;;1.60;1.23;;;7.90;98.20;;;;;;5033241;28;20585;-76
2022/02/09 20:20:21;;;;;;;1.60;1.10;;;8.00;98.20;;;;;;5012203;28;20475;-75
2022/02/09 20:22:48;;;;;;;1.60;1.20;;;8.00;98.20;;;;;;5019201;28;20577;-74
2022/02/09 20:25:17;;;;;;;1.60;1.27;;;8.00;98.20;;;;;;5017369;28;20460;-75
2022/02/09 20:27:46;;;;;;;1.63;1.33;;;8.00;98.20;;;;;;5020240;28;21029;-74
2022/02/09 20:30:16;;;;;;;1.60;1.30;;;8.00;98.20;;;;;;5001044;28;20995;-75
2022/02/09 20:32:48;;;;;;;1.60;1.20;;;7.90;98.20;;;;;;5011625;28;20540;-75
2022/02/09 20:35:18;;;;;;;1.60;1.20;;;7.90;98.20;;;;;;5001214;28;20482;-75
2022/02/09 20:37:48;;;;;;;1.60;1.30;;;7.90;98.20;;;;;;4996586;28;20479;-75
2022/02/09 20:40:20;;;;;;;1.60;1.23;;;7.90;98.20;;;;;;4995042;28;20479;-76
2022/02/09 20:42:53;;;;;;;1.73;1.63;;;7.90;98.20;;;;;;5030291;28;20543;-75
2022/02/09 20:45:26;;;;;;;1.87;1.40;;;7.90;98.20;;;;;;5013595;28;20468;-75
2022/02/09 20:47:58;;;;;;;1.60;1.20;;;7.80;98.20;;;;;;5035833;28;20492;-76
2022/02/09 20:50:28;;;;;;;1.60;1.20;;;7.80;98.20;;;;;;5008796;28;20483;-75
2022/02/09 20:52:55;;;;;;;1.60;1.30;;;7.80;98.20;;;;;;5031946;28;21032;-75
2022/02/09 20:55:22;;;;;;;1.60;1.30;;;7.80;98.20;;;;;;5014718;28;20807;-77
2022/02/09 20:57:50;;;;;;;1.60;1.30;;;7.80;98.20;;;;;;5029639;28;20489;-76
2022/02/09 21:00:24;;;;;;;1.60;1.20;;;7.80;98.20;;;;;;5007968;28;22673;-75
2022/02/09 21:02:57;;;;;;;1.60;1.30;;;7.80;98.20;;;;;;5027517;28;21038;-74
2022/02/09 21:05:38;;;;;;;1.60;1.20;;;7.80;98.20;;;;;;5016232;28;20471;-74
2022/02/09 21:08:31;;;;;;;1.60;1.30;;;7.80;98.20;;;;;;5035818;28;20570;-74
2022/02/09 21:11:08;;;;;;;1.60;1.20;;;7.80;98.20;;;;;;5005719;28;21223;-74
2022/02/09 21:13:45;;;;;;;1.60;1.23;;;7.80;98.20;;;;;;5039849;28;20523;-74
2022/02/09 21:16:24;;;;;;;1.60;1.30;;;7.80;98.20;;;;;;5012025;28;20522;-74
2022/02/09 21:24:51;;;;;;;1.60;1.27;;;7.80;98.20;;;;;;4997703;28;20455;-75
2022/02/09 21:27:51;;;;;;;1.60;1.30;;;7.80;98.20;;;;;;5024884;28;20497;-74
2022/02/09 21:33:25;;;;;;;1.60;1.30;;;7.90;98.20;;;;;;5040557;28;20534;-74
2022/02/09 21:42:07;;;;;;;1.60;1.30;;;7.90;98.20;;;;;;5005266;28;20492;-74
2022/02/09 21:44:58;;;;;;;1.70;1.40;;;7.90;98.20;;;;;;5028641;28;20963;-74
2022/02/09 21:53:10;;;;;;;1.60;1.30;;;7.80;98.20;;;;;;5017583;28;20482;-74
2022/02/09 21:55:48;;;;;;;1.60;1.30;;;7.80;98.20;;;;;;5011030;28;20467;-74
2022/02/09 21:58:32;;;;;;;1.60;1.20;;;7.80;98.20;;;;;;5021971;28;20577;-74
2022/02/09 22:01:17;;;;;;;1.60;1.30;;;7.70;98.20;;;;;;4999774;28;20554;-74
2022/02/09 22:06:39;;;;;;;1.60;1.27;;;7.70;98.20;;;;;;5020661;28;20487;-74
2022/02/09 22:20:19;;;;;;;1.60;1.37;;;7.70;98.20;;;;;;5000342;28;21024;-74
2022/02/09 22:23:00;;;;;;;1.60;1.33;;;7.70;98.20;;;;;;4996440;28;20480;-74
2022/02/09 22:28:30;;;;;;;1.63;1.30;;;7.70;98.20;;;;;;5024289;28;20455;-74
2022/02/09 22:47:51;;;;;;;1.60;1.20;;;7.60;98.20;;;;;;5012537;28;21049;-74
2022/02/09 22:50:40;;;;;;;1.60;1.30;;;7.60;98.20;;;;;;4998446;28;20471;-74
2022/02/09 22:55:51;;;;;;;1.60;1.30;;;7.50;98.20;;;;;;4992266;28;20447;-75
2022/02/09 22:58:18;;;;;;;1.60;1.20;;;7.40;98.20;;;;;;5007592;28;20552;-74
2022/02/09 23:01:03;;;;;;;1.60;1.30;;;7.40;98.20;;;;;;5000988;28;21153;-75
2022/02/09 23:03:43;;;;;;;1.60;1.30;;;7.30;98.20;;;;;;5002292;28;20495;-74
2022/02/09 23:11:58;;;;;;;1.60;1.20;;;7.20;98.20;;;;;;4990163;28;21214;-75
2022/02/09 23:14:44;;;;;;;1.70;1.40;;;7.10;98.20;;;;;;5003235;28;20479;-75
